sensor_id;sensor_type;location;lat;lon;timestamp;P1;durP1;ratioP1;P2;durP2;ratioP2
75450;SDS011;64029;48.244;9.188;2023-03-03T00:02:00;53.83;;;30.07;;
75450;SDS011;64029;48.244;9.188;2023-03-03T00:04:27;57.80;;;30.57;;
75450;SDS011;64029;48.244;9.188;2023-03-03T00:06:53;59.57;;;29.97;;
75450;SDS011;64029;48.244;9.188;2023-03-03T00:09:20;48.03;;;28.83;;
75450;SDS011;64029;48.244;9.188;2023-03-03T00:11:49;52.63;;;29.63;;
75450;SDS011;64029;48.244;9.188;2023-03-03T00:14:22;53.93;;;29.63;;
75450;SDS011;64029;48.244;9.188;2023-03-03T00:16:53;52.73;;;29.87;;
75450;SDS011;64029;48.244;9.188;2023-03-03T00:19:21;51.03;;;29.17;;
75450;SDS011;64029;48.244;9.188;2023-03-03T00:21:49;55.20;;;29.77;;
75450;SDS011;64029;48.244;9.188;2023-03-03T00:24:18;52.90;;;31.10;;
75450;SDS011;64029;48.244;9.188;2023-03-03T00:26:47;58.30;;;31.47;;
75450;SDS011;64029;48.244;9.188;2023-03-03T00:29:25;55.43;;;29.50;;
75450;SDS011;64029;48.244;9.188;2023-03-03T00:31:54;54.73;;;30.73;;
75450;SDS011;64029;48.244;9.188;2023-03-03T00:34:35;58.33;;;30.90;;
75450;SDS011;64029;48.244;9.188;2023-03-03T00:37:03;63.43;;;31.17;;
75450;SDS011;64029;48.244;9.188;2023-03-03T00:42:51;59.57;;;29.07;;
75450;SDS011;64029;48.244;9.188;2023-03-03T00:45:28;52.47;;;28.70;;
75450;SDS011;64029;48.244;9.188;2023-03-03T00:48:07;57.23;;;29.97;;
75450;SDS011;64029;48.244;9.188;2023-03-03T00:50:44;51.00;;;31.20;;
75450;SDS011;64029;48.244;9.188;2023-03-03T00:53:12;59.50;;;30.47;;
75450;SDS011;64029;48.244;9.188;2023-03-03T00:55:41;57.10;;;30.53;;
75450;SDS011;64029;48.244;9.188;2023-03-03T00:58:08;55.67;;;29.87;;
75450;SDS011;64029;48.244;9.188;2023-03-03T01:00:37;47.80;;;27.90;;
75450;SDS011;64029;48.244;9.188;2023-03-03T01:03:05;53.50;;;29.17;;
75450;SDS011;64029;48.244;9.188;2023-03-03T01:05:33;58.90;;;31.63;;
75450;SDS011;64029;48.244;9.188;2023-03-03T01:08:01;57.20;;;31.27;;
75450;SDS011;64029;48.244;9.188;2023-03-03T01:10:30;59.13;;;30.63;;
75450;SDS011;64029;48.244;9.188;2023-03-03T01:12:59;58.53;;;30.60;;
75450;SDS011;64029;48.244;9.188;2023-03-03T01:15:26;59.43;;;33.80;;
75450;SDS011;64029;48.244;9.188;2023-03-03T01:17:55;63.13;;;32.17;;
75450;SDS011;64029;48.244;9.188;2023-03-03T01:20:22;60.83;;;29.70;;
75450;SDS011;64029;48.244;9.188;2023-03-03T01:22:49;59.17;;;31.30;;
75450;SDS011;64029;48.244;9.188;2023-03-03T01:25:16;53.47;;;29.87;;
75450;SDS011;64029;48.244;9.188;2023-03-03T01:27:43;50.23;;;30.07;;
75450;SDS011;64029;48.244;9.188;2023-03-03T01:30:10;54.93;;;30.83;;
75450;SDS011;64029;48.244;9.188;2023-03-03T01:32:37;50.23;;;30.03;;
75450;SDS011;64029;48.244;9.188;2023-03-03T01:35:06;55.67;;;30.23;;
75450;SDS011;64029;48.244;9.188;2023-03-03T01:37:34;47.73;;;29.40;;
75450;SDS011;64029;48.244;9.188;2023-03-03T01:40:02;55.17;;;28.70;;
75450;SDS011;64029;48.244;9.188;2023-03-03T01:42:29;52.07;;;27.93;;
75450;SDS011;64029;48.244;9.188;2023-03-03T01:45:11;54.53;;;31.23;;
75450;SDS011;64029;48.244;9.188;2023-03-03T01:47:41;55.30;;;29.93;;
75450;SDS011;64029;48.244;9.188;2023-03-03T01:50:17;51.03;;;29.50;;
75450;SDS011;64029;48.244;9.188;2023-03-03T01:52:53;53.90;;;29.00;;
75450;SDS011;64029;48.244;9.188;2023-03-03T01:55:25;52.53;;;28.90;;
75450;SDS011;64029;48.244;9.188;2023-03-03T01:57:57;52.90;;;29.40;;
75450;SDS011;64029;48.244;9.188;2023-03-03T02:00:29;51.80;;;28.40;;
75450;SDS011;64029;48.244;9.188;2023-03-03T02:02:57;48.83;;;28.10;;
75450;SDS011;64029;48.244;9.188;2023-03-03T02:05:28;49.23;;;27.47;;
75450;SDS011;64029;48.244;9.188;2023-03-03T02:07:55;55.73;;;28.90;;
75450;SDS011;64029;48.244;9.188;2023-03-03T02:10:22;53.17;;;28.40;;
75450;SDS011;64029;48.244;9.188;2023-03-03T02:12:50;54.47;;;29.30;;
75450;SDS011;64029;48.244;9.188;2023-03-03T02:15:20;55.20;;;27.77;;
75450;SDS011;64029;48.244;9.188;2023-03-03T02:17:48;55.00;;;29.53;;
75450;SDS011;64029;48.244;9.188;2023-03-03T02:20:20;52.63;;;29.00;;
75450;SDS011;64029;48.244;9.188;2023-03-03T02:23:02;49.37;;;27.70;;
75450;SDS011;64029;48.244;9.188;2023-03-03T02:25:33;57.80;;;28.20;;
75450;SDS011;64029;48.244;9.188;2023-03-03T02:28:08;53.90;;;27.47;;
75450;SDS011;64029;48.244;9.188;2023-03-03T02:30:38;56.60;;;29.57;;
75450;SDS011;64029;48.244;9.188;2023-03-03T02:33:05;61.20;;;29.40;;
75450;SDS011;64029;48.244;9.188;2023-03-03T02:35:33;59.20;;;30.63;;
75450;SDS011;64029;48.244;9.188;2023-03-03T02:40:52;59.07;;;30.67;;
75450;SDS011;64029;48.244;9.188;2023-03-03T02:43:28;53.50;;;28.40;;
75450;SDS011;64029;48.244;9.188;2023-03-03T02:46:02;51.70;;;28.77;;
75450;SDS011;64029;48.244;9.188;2023-03-03T02:48:29;47.87;;;27.27;;
75450;SDS011;64029;48.244;9.188;2023-03-03T02:50:56;48.90;;;27.43;;
75450;SDS011;64029;48.244;9.188;2023-03-03T02:53:23;51.17;;;27.67;;
75450;SDS011;64029;48.244;9.188;2023-03-03T02:55:50;46.77;;;27.57;;
75450;SDS011;64029;48.244;9.188;2023-03-03T02:58:17;55.47;;;29.03;;
75450;SDS011;64029;48.244;9.188;2023-03-03T03:00:45;60.13;;;29.40;;
75450;SDS011;64029;48.244;9.188;2023-03-03T03:03:12;55.70;;;29.63;;
75450;SDS011;64029;48.244;9.188;2023-03-03T03:05:39;56.70;;;30.17;;
75450;SDS011;64029;48.244;9.188;2023-03-03T03:08:06;49.93;;;27.50;;
75450;SDS011;64029;48.244;9.188;2023-03-03T03:10:34;54.00;;;27.73;;
75450;SDS011;64029;48.244;9.188;2023-03-03T03:13:01;58.30;;;29.50;;
75450;SDS011;64029;48.244;9.188;2023-03-03T03:15:28;53.60;;;28.67;;
75450;SDS011;64029;48.244;9.188;2023-03-03T03:17:56;57.60;;;30.27;;
75450;SDS011;64029;48.244;9.188;2023-03-03T03:20:23;54.60;;;28.50;;
75450;SDS011;64029;48.244;9.188;2023-03-03T03:22:50;56.57;;;28.67;;
75450;SDS011;64029;48.244;9.188;2023-03-03T03:25:17;48.87;;;27.23;;
75450;SDS011;64029;48.244;9.188;2023-03-03T03:27:44;47.97;;;27.80;;
75450;SDS011;64029;48.244;9.188;2023-03-03T03:30:11;51.73;;;28.90;;
75450;SDS011;64029;48.244;9.188;2023-03-03T03:32:38;54.00;;;28.03;;
75450;SDS011;64029;48.244;9.188;2023-03-03T03:35:07;57.53;;;28.73;;
75450;SDS011;64029;48.244;9.188;2023-03-03T03:37:35;48.90;;;28.30;;
75450;SDS011;64029;48.244;9.188;2023-03-03T03:40:02;55.37;;;27.80;;
75450;SDS011;64029;48.244;9.188;2023-03-03T03:42:30;51.67;;;27.27;;
75450;SDS011;64029;48.244;9.188;2023-03-03T03:44:56;53.30;;;27.67;;
75450;SDS011;64029;48.244;9.188;2023-03-03T03:47:23;52.60;;;30.37;;
75450;SDS011;64029;48.244;9.188;2023-03-03T03:49:50;50.53;;;27.60;;
75450;SDS011;64029;48.244;9.188;2023-03-03T03:52:19;61.07;;;31.00;;
75450;SDS011;64029;48.244;9.188;2023-03-03T03:54:45;54.10;;;28.47;;
75450;SDS011;64029;48.244;9.188;2023-03-03T03:57:14;46.83;;;27.57;;
75450;SDS011;64029;48.244;9.188;2023-03-03T03:59:41;54.40;;;28.47;;
75450;SDS011;64029;48.244;9.188;2023-03-03T04:02:08;57.33;;;27.63;;
75450;SDS011;64029;48.244;9.188;2023-03-03T04:04:35;51.10;;;27.27;;
75450;SDS011;64029;48.244;9.188;2023-03-03T04:07:02;56.70;;;30.10;;
75450;SDS011;64029;48.244;9.188;2023-03-03T04:09:30;55.47;;;28.27;;
75450;SDS011;64029;48.244;9.188;2023-03-03T04:11:57;52.77;;;29.50;;
75450;SDS011;64029;48.244;9.188;2023-03-03T04:14:24;55.70;;;28.10;;
75450;SDS011;64029;48.244;9.188;2023-03-03T04:16:51;56.70;;;28.07;;
75450;SDS011;64029;48.244;9.188;2023-03-03T04:19:18;48.77;;;27.60;;
75450;SDS011;64029;48.244;9.188;2023-03-03T04:21:45;52.43;;;27.53;;
75450;SDS011;64029;48.244;9.188;2023-03-03T04:24:12;48.10;;;27.17;;
75450;SDS011;64029;48.244;9.188;2023-03-03T04:26:41;50.80;;;27.97;;
75450;SDS011;64029;48.244;9.188;2023-03-03T04:29:07;53.63;;;28.47;;
75450;SDS011;64029;48.244;9.188;2023-03-03T04:31:36;56.90;;;27.97;;
75450;SDS011;64029;48.244;9.188;2023-03-03T04:34:03;52.97;;;28.33;;
75450;SDS011;64029;48.244;9.188;2023-03-03T04:36:30;50.07;;;28.27;;
75450;SDS011;64029;48.244;9.188;2023-03-03T04:39:00;54.33;;;29.03;;
75450;SDS011;64029;48.244;9.188;2023-03-03T04:41:27;52.33;;;27.90;;
75450;SDS011;64029;48.244;9.188;2023-03-03T04:43:55;50.60;;;29.20;;
75450;SDS011;64029;48.244;9.188;2023-03-03T04:46:22;49.47;;;28.47;;
75450;SDS011;64029;48.244;9.188;2023-03-03T04:48:49;49.77;;;28.33;;
75450;SDS011;64029;48.244;9.188;2023-03-03T04:51:16;53.07;;;26.50;;
75450;SDS011;64029;48.244;9.188;2023-03-03T04:53:43;52.90;;;27.97;;
75450;SDS011;64029;48.244;9.188;2023-03-03T04:56:10;47.80;;;25.43;;
75450;SDS011;64029;48.244;9.188;2023-03-03T04:58:37;60.77;;;27.67;;
75450;SDS011;64029;48.244;9.188;2023-03-03T05:01:05;56.43;;;28.60;;
75450;SDS011;64029;48.244;9.188;2023-03-03T05:03:33;52.00;;;27.53;;
75450;SDS011;64029;48.244;9.188;2023-03-03T05:06:01;48.97;;;24.63;;
75450;SDS011;64029;48.244;9.188;2023-03-03T05:08:28;55.03;;;27.20;;
75450;SDS011;64029;48.244;9.188;2023-03-03T05:10:55;53.87;;;29.07;;
75450;SDS011;64029;48.244;9.188;2023-03-03T05:13:25;60.13;;;29.10;;
75450;SDS011;64029;48.244;9.188;2023-03-03T05:15:52;54.43;;;29.03;;
75450;SDS011;64029;48.244;9.188;2023-03-03T05:18:22;53.13;;;26.00;;
75450;SDS011;64029;48.244;9.188;2023-03-03T05:20:52;60.87;;;28.60;;
75450;SDS011;64029;48.244;9.188;2023-03-03T05:23:19;47.83;;;27.07;;
75450;SDS011;64029;48.244;9.188;2023-03-03T05:25:46;46.87;;;26.00;;
75450;SDS011;64029;48.244;9.188;2023-03-03T05:28:14;51.13;;;28.77;;
75450;SDS011;64029;48.244;9.188;2023-03-03T05:30:42;52.07;;;26.00;;
75450;SDS011;64029;48.244;9.188;2023-03-03T05:33:09;51.73;;;26.63;;
75450;SDS011;64029;48.244;9.188;2023-03-03T05:35:40;57.13;;;28.70;;
75450;SDS011;64029;48.244;9.188;2023-03-03T05:38:07;58.83;;;28.87;;
75450;SDS011;64029;48.244;9.188;2023-03-03T05:40:34;57.03;;;29.37;;
75450;SDS011;64029;48.244;9.188;2023-03-03T05:43:01;52.93;;;26.90;;
75450;SDS011;64029;48.244;9.188;2023-03-03T05:45:28;55.40;;;27.47;;
75450;SDS011;64029;48.244;9.188;2023-03-03T05:47:55;50.03;;;27.80;;
75450;SDS011;64029;48.244;9.188;2023-03-03T05:50:22;58.27;;;29.47;;
75450;SDS011;64029;48.244;9.188;2023-03-03T05:52:51;58.77;;;28.20;;
75450;SDS011;64029;48.244;9.188;2023-03-03T05:55:18;53.17;;;29.20;;
75450;SDS011;64029;48.244;9.188;2023-03-03T05:57:45;53.37;;;27.10;;
75450;SDS011;64029;48.244;9.188;2023-03-03T06:00:12;52.77;;;26.17;;
75450;SDS011;64029;48.244;9.188;2023-03-03T06:02:41;51.13;;;26.20;;
75450;SDS011;64029;48.244;9.188;2023-03-03T06:05:08;49.63;;;26.97;;
75450;SDS011;64029;48.244;9.188;2023-03-03T06:07:35;46.20;;;26.33;;
75450;SDS011;64029;48.244;9.188;2023-03-03T06:10:05;53.50;;;28.17;;
75450;SDS011;64029;48.244;9.188;2023-03-03T06:12:32;55.13;;;27.77;;
75450;SDS011;64029;48.244;9.188;2023-03-03T06:14:59;49.20;;;26.20;;
75450;SDS011;64029;48.244;9.188;2023-03-03T06:17:26;49.37;;;26.43;;
75450;SDS011;64029;48.244;9.188;2023-03-03T06:19:53;53.70;;;26.77;;
75450;SDS011;64029;48.244;9.188;2023-03-03T06:22:20;50.17;;;25.80;;
75450;SDS011;64029;48.244;9.188;2023-03-03T06:24:50;49.63;;;26.73;;
75450;SDS011;64029;48.244;9.188;2023-03-03T06:27:19;47.37;;;25.37;;
75450;SDS011;64029;48.244;9.188;2023-03-03T06:29:46;49.17;;;26.70;;
75450;SDS011;64029;48.244;9.188;2023-03-03T06:32:13;51.37;;;27.43;;
75450;SDS011;64029;48.244;9.188;2023-03-03T06:34:40;50.13;;;26.90;;
75450;SDS011;64029;48.244;9.188;2023-03-03T06:37:07;58.33;;;31.07;;
75450;SDS011;64029;48.244;9.188;2023-03-03T06:39:34;52.10;;;28.23;;
75450;SDS011;64029;48.244;9.188;2023-03-03T06:42:01;55.87;;;27.70;;
75450;SDS011;64029;48.244;9.188;2023-03-03T06:44:32;48.40;;;27.17;;
75450;SDS011;64029;48.244;9.188;2023-03-03T06:46:59;64.07;;;33.23;;
75450;SDS011;64029;48.244;9.188;2023-03-03T06:49:27;67.83;;;34.70;;
75450;SDS011;64029;48.244;9.188;2023-03-03T06:51:54;61.43;;;33.03;;
75450;SDS011;64029;48.244;9.188;2023-03-03T06:54:26;59.17;;;32.27;;
75450;SDS011;64029;48.244;9.188;2023-03-03T06:56:54;52.60;;;31.07;;
75450;SDS011;64029;48.244;9.188;2023-03-03T06:59:25;62.50;;;32.20;;
75450;SDS011;64029;48.244;9.188;2023-03-03T07:01:55;57.97;;;32.77;;
75450;SDS011;64029;48.244;9.188;2023-03-03T07:04:24;72.07;;;36.80;;
75450;SDS011;64029;48.244;9.188;2023-03-03T07:06:55;66.33;;;35.93;;
75450;SDS011;64029;48.244;9.188;2023-03-03T07:09:24;61.30;;;32.87;;
75450;SDS011;64029;48.244;9.188;2023-03-03T07:11:53;66.83;;;34.10;;
75450;SDS011;64029;48.244;9.188;2023-03-03T07:14:25;71.37;;;36.77;;
75450;SDS011;64029;48.244;9.188;2023-03-03T07:16:57;68.97;;;35.73;;
75450;SDS011;64029;48.244;9.188;2023-03-03T07:19:28;75.93;;;36.43;;
75450;SDS011;64029;48.244;9.188;2023-03-03T07:22:00;79.13;;;37.60;;
75450;SDS011;64029;48.244;9.188;2023-03-03T07:24:36;79.27;;;39.70;;
75450;SDS011;64029;48.244;9.188;2023-03-03T07:27:05;68.00;;;36.87;;
75450;SDS011;64029;48.244;9.188;2023-03-03T07:29:38;69.53;;;36.00;;
75450;SDS011;64029;48.244;9.188;2023-03-03T07:32:12;71.47;;;35.70;;
75450;SDS011;64029;48.244;9.188;2023-03-03T07:34:53;71.23;;;35.63;;
75450;SDS011;64029;48.244;9.188;2023-03-03T07:37:24;71.43;;;36.37;;
75450;SDS011;64029;48.244;9.188;2023-03-03T07:39:57;75.20;;;36.40;;
75450;SDS011;64029;48.244;9.188;2023-03-03T07:42:25;65.73;;;36.50;;
75450;SDS011;64029;48.244;9.188;2023-03-03T07:44:53;71.50;;;36.23;;
75450;SDS011;64029;48.244;9.188;2023-03-03T07:47:24;64.53;;;33.10;;
75450;SDS011;64029;48.244;9.188;2023-03-03T07:49:53;72.57;;;35.33;;
75450;SDS011;64029;48.244;9.188;2023-03-03T07:52:25;63.27;;;34.07;;
75450;SDS011;64029;48.244;9.188;2023-03-03T07:54:54;66.07;;;36.13;;
75450;SDS011;64029;48.244;9.188;2023-03-03T07:57:24;73.50;;;37.27;;
75450;SDS011;64029;48.244;9.188;2023-03-03T07:59:53;74.50;;;34.80;;
75450;SDS011;64029;48.244;9.188;2023-03-03T08:05:20;75.43;;;36.87;;
75450;SDS011;64029;48.244;9.188;2023-03-03T08:07:53;63.03;;;30.27;;
75450;SDS011;64029;48.244;9.188;2023-03-03T08:10:28;70.57;;;36.07;;
75450;SDS011;64029;48.244;9.188;2023-03-03T08:13:01;73.00;;;33.73;;
75450;SDS011;64029;48.244;9.188;2023-03-03T08:15:40;60.83;;;30.73;;
75450;SDS011;64029;48.244;9.188;2023-03-03T08:18:14;64.57;;;34.03;;
75450;SDS011;64029;48.244;9.188;2023-03-03T08:20:48;68.13;;;33.93;;
75450;SDS011;64029;48.244;9.188;2023-03-03T08:23:17;68.23;;;33.13;;
75450;SDS011;64029;48.244;9.188;2023-03-03T08:25:45;69.27;;;30.40;;
75450;SDS011;64029;48.244;9.188;2023-03-03T08:28:14;75.23;;;34.00;;
75450;SDS011;64029;48.244;9.188;2023-03-03T08:30:41;68.90;;;33.10;;
75450;SDS011;64029;48.244;9.188;2023-03-03T08:33:09;59.17;;;31.80;;
75450;SDS011;64029;48.244;9.188;2023-03-03T08:35:38;68.23;;;34.27;;
75450;SDS011;64029;48.244;9.188;2023-03-03T08:38:05;60.87;;;32.30;;
75450;SDS011;64029;48.244;9.188;2023-03-03T08:40:33;66.53;;;30.40;;
75450;SDS011;64029;48.244;9.188;2023-03-03T08:43:01;65.07;;;33.40;;
75450;SDS011;64029;48.244;9.188;2023-03-03T08:45:28;60.93;;;31.40;;
75450;SDS011;64029;48.244;9.188;2023-03-03T08:47:55;70.00;;;32.10;;
75450;SDS011;64029;48.244;9.188;2023-03-03T08:50:24;61.57;;;31.63;;
75450;SDS011;64029;48.244;9.188;2023-03-03T08:52:52;74.37;;;35.40;;
75450;SDS011;64029;48.244;9.188;2023-03-03T08:55:19;64.40;;;31.17;;
75450;SDS011;64029;48.244;9.188;2023-03-03T08:57:46;65.63;;;32.77;;
75450;SDS011;64029;48.244;9.188;2023-03-03T09:00:14;61.00;;;33.03;;
75450;SDS011;64029;48.244;9.188;2023-03-03T09:02:43;64.00;;;32.17;;
75450;SDS011;64029;48.244;9.188;2023-03-03T09:05:10;60.33;;;33.60;;
75450;SDS011;64029;48.244;9.188;2023-03-03T09:07:38;63.23;;;32.13;;
75450;SDS011;64029;48.244;9.188;2023-03-03T09:10:07;57.80;;;29.43;;
75450;SDS011;64029;48.244;9.188;2023-03-03T09:12:37;64.47;;;32.10;;
75450;SDS011;64029;48.244;9.188;2023-03-03T09:15:12;61.90;;;31.37;;
75450;SDS011;64029;48.244;9.188;2023-03-03T09:17:43;67.23;;;32.23;;
75450;SDS011;64029;48.244;9.188;2023-03-03T09:20:19;59.13;;;31.03;;
75450;SDS011;64029;48.244;9.188;2023-03-03T09:22:50;57.40;;;29.23;;
75450;SDS011;64029;48.244;9.188;2023-03-03T09:25:24;58.83;;;31.93;;
75450;SDS011;64029;48.244;9.188;2023-03-03T09:27:57;60.63;;;29.27;;
75450;SDS011;64029;48.244;9.188;2023-03-03T09:30:35;54.67;;;27.57;;
75450;SDS011;64029;48.244;9.188;2023-03-03T09:33:24;55.73;;;28.60;;
75450;SDS011;64029;48.244;9.188;2023-03-03T09:35:57;60.33;;;29.67;;
75450;SDS011;64029;48.244;9.188;2023-03-03T09:38:29;60.70;;;29.10;;
75450;SDS011;64029;48.244;9.188;2023-03-03T09:41:08;58.90;;;31.20;;
75450;SDS011;64029;48.244;9.188;2023-03-03T09:44:02;58.40;;;30.10;;
75450;SDS011;64029;48.244;9.188;2023-03-03T09:46:44;61.03;;;32.40;;
75450;SDS011;64029;48.244;9.188;2023-03-03T09:49:24;66.97;;;34.27;;
75450;SDS011;64029;48.244;9.188;2023-03-03T09:52:02;60.60;;;30.83;;
75450;SDS011;64029;48.244;9.188;2023-03-03T09:54:42;60.53;;;33.50;;
75450;SDS011;64029;48.244;9.188;2023-03-03T09:57:34;63.90;;;32.33;;
75450;SDS011;64029;48.244;9.188;2023-03-03T10:00:17;57.40;;;30.70;;
75450;SDS011;64029;48.244;9.188;2023-03-03T10:02:58;57.57;;;29.23;;
75450;SDS011;64029;48.244;9.188;2023-03-03T10:05:33;64.70;;;30.40;;
75450;SDS011;64029;48.244;9.188;2023-03-03T10:08:16;56.97;;;29.80;;
75450;SDS011;64029;48.244;9.188;2023-03-03T10:11:16;55.77;;;29.37;;
75450;SDS011;64029;48.244;9.188;2023-03-03T10:13:52;51.97;;;27.80;;
75450;SDS011;64029;48.244;9.188;2023-03-03T10:16:35;56.07;;;29.73;;
75450;SDS011;64029;48.244;9.188;2023-03-03T10:19:16;58.87;;;27.83;;
75450;SDS011;64029;48.244;9.188;2023-03-03T10:21:54;58.13;;;28.63;;
75450;SDS011;64029;48.244;9.188;2023-03-03T10:24:28;57.27;;;28.40;;
75450;SDS011;64029;48.244;9.188;2023-03-03T10:27:00;54.80;;;29.60;;
75450;SDS011;64029;48.244;9.188;2023-03-03T10:29:40;54.13;;;28.60;;
75450;SDS011;64029;48.244;9.188;2023-03-03T10:32:25;65.60;;;28.93;;
75450;SDS011;64029;48.244;9.188;2023-03-03T10:38:08;55.07;;;29.20;;
75450;SDS011;64029;48.244;9.188;2023-03-03T10:40:52;64.07;;;27.27;;
75450;SDS011;64029;48.244;9.188;2023-03-03T10:43:26;56.07;;;28.20;;
75450;SDS011;64029;48.244;9.188;2023-03-03T10:46:19;45.23;;;25.83;;
75450;SDS011;64029;48.244;9.188;2023-03-03T10:51:54;55.03;;;28.73;;
75450;SDS011;64029;48.244;9.188;2023-03-03T10:54:39;50.93;;;27.07;;
75450;SDS011;64029;48.244;9.188;2023-03-03T10:57:17;52.93;;;27.57;;
75450;SDS011;64029;48.244;9.188;2023-03-03T10:59:56;55.50;;;25.77;;
75450;SDS011;64029;48.244;9.188;2023-03-03T11:02:44;50.50;;;27.43;;
75450;SDS011;64029;48.244;9.188;2023-03-03T11:05:22;53.50;;;26.00;;
75450;SDS011;64029;48.244;9.188;2023-03-03T11:07:59;50.00;;;27.13;;
75450;SDS011;64029;48.244;9.188;2023-03-03T11:10:33;50.90;;;25.83;;
75450;SDS011;64029;48.244;9.188;2023-03-03T11:13:12;51.77;;;27.07;;
75450;SDS011;64029;48.244;9.188;2023-03-03T11:15:53;58.83;;;27.10;;
75450;SDS011;64029;48.244;9.188;2023-03-03T11:18:46;52.00;;;25.90;;
75450;SDS011;64029;48.244;9.188;2023-03-03T11:21:27;47.80;;;26.47;;
75450;SDS011;64029;48.244;9.188;2023-03-03T11:24:05;43.93;;;26.63;;
75450;SDS011;64029;48.244;9.188;2023-03-03T11:26:48;51.20;;;27.07;;
75450;SDS011;64029;48.244;9.188;2023-03-03T11:29:53;48.60;;;26.50;;
75450;SDS011;64029;48.244;9.188;2023-03-03T11:32:31;49.67;;;26.40;;
75450;SDS011;64029;48.244;9.188;2023-03-03T11:35:13;51.00;;;26.73;;
75450;SDS011;64029;48.244;9.188;2023-03-03T11:37:48;51.00;;;26.07;;
75450;SDS011;64029;48.244;9.188;2023-03-03T11:40:23;57.67;;;26.90;;
75450;SDS011;64029;48.244;9.188;2023-03-03T11:42:57;48.67;;;26.30;;
75450;SDS011;64029;48.244;9.188;2023-03-03T11:45:30;50.07;;;26.90;;
75450;SDS011;64029;48.244;9.188;2023-03-03T11:48:06;42.67;;;25.20;;
75450;SDS011;64029;48.244;9.188;2023-03-03T11:50:42;45.07;;;25.43;;
75450;SDS011;64029;48.244;9.188;2023-03-03T11:53:22;46.67;;;25.67;;
75450;SDS011;64029;48.244;9.188;2023-03-03T11:55:55;50.57;;;25.53;;
75450;SDS011;64029;48.244;9.188;2023-03-03T11:58:27;52.73;;;27.20;;
75450;SDS011;64029;48.244;9.188;2023-03-03T12:01:00;47.10;;;27.17;;
75450;SDS011;64029;48.244;9.188;2023-03-03T12:03:36;49.30;;;26.37;;
75450;SDS011;64029;48.244;9.188;2023-03-03T12:06:11;49.67;;;27.20;;
75450;SDS011;64029;48.244;9.188;2023-03-03T12:11:53;45.30;;;24.60;;
75450;SDS011;64029;48.244;9.188;2023-03-03T12:17:27;53.80;;;25.60;;
75450;SDS011;64029;48.244;9.188;2023-03-03T12:20:10;49.70;;;25.67;;
75450;SDS011;64029;48.244;9.188;2023-03-03T12:22:46;48.20;;;26.17;;
75450;SDS011;64029;48.244;9.188;2023-03-03T12:25:28;43.30;;;26.43;;
75450;SDS011;64029;48.244;9.188;2023-03-03T12:28:03;41.80;;;24.43;;
75450;SDS011;64029;48.244;9.188;2023-03-03T12:33:37;44.20;;;23.83;;
75450;SDS011;64029;48.244;9.188;2023-03-03T12:36:20;46.23;;;24.20;;
75450;SDS011;64029;48.244;9.188;2023-03-03T12:39:01;45.10;;;24.90;;
75450;SDS011;64029;48.244;9.188;2023-03-03T12:41:35;49.00;;;26.47;;
75450;SDS011;64029;48.244;9.188;2023-03-03T12:44:13;46.03;;;26.03;;
75450;SDS011;64029;48.244;9.188;2023-03-03T12:46:50;46.13;;;26.13;;
75450;SDS011;64029;48.244;9.188;2023-03-03T12:49:25;44.63;;;25.10;;
75450;SDS011;64029;48.244;9.188;2023-03-03T12:52:03;51.13;;;26.00;;
75450;SDS011;64029;48.244;9.188;2023-03-03T12:54:47;41.87;;;26.07;;
75450;SDS011;64029;48.244;9.188;2023-03-03T12:57:24;50.40;;;28.10;;
75450;SDS011;64029;48.244;9.188;2023-03-03T13:00:16;51.97;;;28.50;;
75450;SDS011;64029;48.244;9.188;2023-03-03T13:02:51;53.63;;;26.83;;
75450;SDS011;64029;48.244;9.188;2023-03-03T13:05:27;48.50;;;24.70;;
75450;SDS011;64029;48.244;9.188;2023-03-03T13:08:09;49.97;;;26.07;;
75450;SDS011;64029;48.244;9.188;2023-03-03T13:10:57;45.70;;;27.30;;
75450;SDS011;64029;48.244;9.188;2023-03-03T13:13:31;46.60;;;26.60;;
75450;SDS011;64029;48.244;9.188;2023-03-03T13:16:03;45.53;;;27.00;;
75450;SDS011;64029;48.244;9.188;2023-03-03T13:18:40;40.23;;;24.80;;
75450;SDS011;64029;48.244;9.188;2023-03-03T13:21:20;47.47;;;25.50;;
75450;SDS011;64029;48.244;9.188;2023-03-03T13:23:53;49.10;;;25.53;;
75450;SDS011;64029;48.244;9.188;2023-03-03T13:26:30;40.37;;;23.07;;
75450;SDS011;64029;48.244;9.188;2023-03-03T13:29:03;42.93;;;24.33;;
75450;SDS011;64029;48.244;9.188;2023-03-03T13:31:37;45.60;;;23.80;;
75450;SDS011;64029;48.244;9.188;2023-03-03T13:34:07;42.13;;;23.47;;
75450;SDS011;64029;48.244;9.188;2023-03-03T13:36:41;39.47;;;22.80;;
75450;SDS011;64029;48.244;9.188;2023-03-03T13:39:17;42.70;;;24.67;;
75450;SDS011;64029;48.244;9.188;2023-03-03T13:41:52;47.47;;;25.40;;
75450;SDS011;64029;48.244;9.188;2023-03-03T13:44:27;42.20;;;22.63;;
75450;SDS011;64029;48.244;9.188;2023-03-03T13:47:02;40.73;;;23.37;;
75450;SDS011;64029;48.244;9.188;2023-03-03T13:49:46;38.47;;;22.77;;
75450;SDS011;64029;48.244;9.188;2023-03-03T13:52:26;46.77;;;25.20;;
75450;SDS011;64029;48.244;9.188;2023-03-03T13:54:59;39.03;;;23.90;;
75450;SDS011;64029;48.244;9.188;2023-03-03T13:57:49;39.43;;;22.90;;
75450;SDS011;64029;48.244;9.188;2023-03-03T14:00:33;43.57;;;25.03;;
75450;SDS011;64029;48.244;9.188;2023-03-03T14:06:08;44.57;;;24.77;;
75450;SDS011;64029;48.244;9.188;2023-03-03T14:08:43;36.97;;;22.57;;
75450;SDS011;64029;48.244;9.188;2023-03-03T14:11:18;45.70;;;22.70;;
75450;SDS011;64029;48.244;9.188;2023-03-03T14:13:52;43.67;;;23.73;;
75450;SDS011;64029;48.244;9.188;2023-03-03T14:16:31;40.03;;;21.60;;
75450;SDS011;64029;48.244;9.188;2023-03-03T14:19:08;39.07;;;22.20;;
75450;SDS011;64029;48.244;9.188;2023-03-03T14:21:42;42.20;;;22.70;;
75450;SDS011;64029;48.244;9.188;2023-03-03T14:24:15;41.03;;;22.77;;
75450;SDS011;64029;48.244;9.188;2023-03-03T14:26:44;40.23;;;23.00;;
75450;SDS011;64029;48.244;9.188;2023-03-03T14:29:20;41.73;;;22.73;;
75450;SDS011;64029;48.244;9.188;2023-03-03T14:31:54;41.20;;;22.17;;
75450;SDS011;64029;48.244;9.188;2023-03-03T14:34:29;42.63;;;22.53;;
75450;SDS011;64029;48.244;9.188;2023-03-03T14:39:59;34.50;;;21.93;;
75450;SDS011;64029;48.244;9.188;2023-03-03T14:42:45;36.37;;;21.63;;
75450;SDS011;64029;48.244;9.188;2023-03-03T14:45:28;35.97;;;21.37;;
75450;SDS011;64029;48.244;9.188;2023-03-03T14:47:58;40.60;;;21.90;;
75450;SDS011;64029;48.244;9.188;2023-03-03T14:50:33;45.83;;;22.37;;
75450;SDS011;64029;48.244;9.188;2023-03-03T14:53:06;39.30;;;23.13;;
75450;SDS011;64029;48.244;9.188;2023-03-03T14:55:40;48.30;;;24.77;;
75450;SDS011;64029;48.244;9.188;2023-03-03T14:58:25;43.57;;;24.63;;
75450;SDS011;64029;48.244;9.188;2023-03-03T15:03:59;48.73;;;27.00;;
75450;SDS011;64029;48.244;9.188;2023-03-03T15:06:28;44.03;;;25.10;;
75450;SDS011;64029;48.244;9.188;2023-03-03T15:09:22;46.80;;;25.40;;
75450;SDS011;64029;48.244;9.188;2023-03-03T15:11:55;43.83;;;26.50;;
75450;SDS011;64029;48.244;9.188;2023-03-03T15:14:31;48.00;;;27.10;;
75450;SDS011;64029;48.244;9.188;2023-03-03T15:17:15;43.30;;;24.57;;
75450;SDS011;64029;48.244;9.188;2023-03-03T15:22:58;46.33;;;26.27;;
75450;SDS011;64029;48.244;9.188;2023-03-03T15:25:38;53.17;;;25.57;;
75450;SDS011;64029;48.244;9.188;2023-03-03T15:28:14;51.50;;;27.60;;